Time;durP1;ratioP1;P1;durP2;ratioP2;P2;SDS_P1;SDS_P2;PMS_P1;PMS_P2;Temp;Humidity;BMP_temperature;BMP_pressure;BME280_temperature;BME280_humidity;BME280_pressure;Samples;Min_cycle;Max_cycle;Signal;HPM_P1;HPM_P2
2021/04/11 00:02:02;;;;;;;10.93;8.40;;;10.60;99.90;;;;;;5051455;28;20175;-66
2021/04/11 00:04:28;;;;;;;9.70;8.30;;;10.50;99.90;;;;;;5051283;28;20171;-66
2021/04/11 00:06:53;;;;;;;9.77;8.77;;;10.60;99.90;;;;;;5051214;28;20229;-65
2021/04/11 00:09:19;;;;;;;10.97;9.13;;;10.60;99.90;;;;;;5051550;28;20198;-65
2021/04/11 00:11:44;;;;;;;10.30;9.23;;;10.60;99.90;;;;;;5050838;28;20233;-66
2021/04/11 00:14:10;;;;;;;12.80;8.40;;;10.60;99.90;;;;;;5051559;28;20650;-65
2021/04/11 00:16:36;;;;;;;12.20;8.77;;;10.60;99.90;;;;;;5050831;28;20289;-66
2021/04/11 00:19:02;;;;;;;12.57;9.47;;;10.60;99.90;;;;;;5051512;28;20174;-65
2021/04/11 00:21:27;;;;;;;10.33;9.23;;;10.60;99.90;;;;;;5051146;28;20541;-65
2021/04/11 00:23:53;;;;;;;13.77;8.90;;;10.60;99.90;;;;;;5049832;28;20652;-66
2021/04/11 00:26:19;;;;;;;11.10;8.83;;;10.60;99.90;;;;;;5051263;28;20201;-66
2021/04/11 00:28:44;;;;;;;9.60;8.60;;;10.60;99.90;;;;;;5051034;28;20174;-66
2021/04/11 00:31:10;;;;;;;10.40;8.67;;;10.60;99.90;;;;;;5051522;28;20171;-66
2021/04/11 00:33:39;;;;;;;12.17;8.73;;;10.60;99.90;;;;;;5055084;28;20199;-65
2021/04/11 00:36:11;;;;;;;10.17;8.23;;;10.50;99.90;;;;;;5055307;28;20195;-66
2021/04/11 00:38:37;;;;;;;10.03;8.60;;;10.50;99.90;;;;;;5055509;28;20171;-66
2021/04/11 00:41:26;;;;;;;11.83;7.93;;;10.60;99.90;;;;;;5054789;28;20240;-66
2021/04/11 00:43:52;;;;;;;12.37;8.07;;;10.50;99.90;;;;;;5048796;28;20199;-66
2021/04/11 00:46:35;;;;;;;10.87;8.87;;;10.60;99.90;;;;;;5055195;28;20568;-65
2021/04/11 00:49:02;;;;;;;15.00;9.87;;;10.60;99.90;;;;;;5055493;28;20659;-65
2021/04/11 00:51:31;;;;;;;12.03;9.37;;;10.70;99.90;;;;;;5054700;28;20185;-66
2021/04/11 00:53:58;;;;;;;10.43;8.40;;;10.70;99.90;;;;;;5055143;28;20174;-66
2021/04/11 00:56:24;;;;;;;11.27;9.60;;;10.70;99.90;;;;;;5054653;28;20191;-65
2021/04/11 00:58:51;;;;;;;10.47;9.40;;;10.70;99.90;;;;;;5055020;28;20182;-66
2021/04/11 01:01:16;;;;;;;10.87;9.70;;;10.70;99.90;;;;;;5054584;28;20171;-66
2021/04/11 01:03:42;;;;;;;12.97;10.10;;;10.80;99.90;;;;;;5054646;28;20247;-66
2021/04/11 01:06:12;;;;;;;10.40;9.40;;;10.70;99.90;;;;;;5054936;28;20274;-66
2021/04/11 01:08:38;;;;;;;10.93;9.53;;;10.70;99.90;;;;;;5054418;28;20181;-66
2021/04/11 01:11:17;;;;;;;14.63;10.37;;;10.70;99.90;;;;;;5054652;28;20655;-66
2021/04/11 01:13:47;;;;;;;10.23;9.13;;;10.70;99.90;;;;;;5054404;28;20206;-66
2021/04/11 01:16:15;;;;;;;13.37;9.77;;;10.70;99.90;;;;;;5054679;28;20291;-66
2021/04/11 01:18:41;;;;;;;13.30;10.10;;;10.70;99.90;;;;;;5054384;28;20174;-66
2021/04/11 01:21:32;;;;;;;13.30;9.87;;;10.70;99.90;;;;;;5054354;28;20257;-65
2021/04/11 01:24:12;;;;;;;10.27;9.27;;;10.60;99.90;;;;;;5054338;28;20223;-66
2021/04/11 01:26:39;;;;;;;12.17;9.30;;;10.60;99.90;;;;;;5054317;28;20317;-66
2021/04/11 01:29:07;;;;;;;10.43;9.30;;;10.60;99.90;;;;;;5054672;28;20655;-66
2021/04/11 01:31:33;;;;;;;9.77;8.87;;;10.60;99.90;;;;;;5053815;28;20236;-66
2021/04/11 01:33:59;;;;;;;11.33;9.50;;;10.60;99.90;;;;;;5054453;28;20175;-66
2021/04/11 01:36:29;;;;;;;11.80;9.30;;;10.60;99.90;;;;;;5054083;28;20199;-66
2021/04/11 01:38:59;;;;;;;10.17;9.17;;;10.60;99.90;;;;;;5054247;28;20182;-66
2021/04/11 01:41:42;;;;;;;13.67;10.10;;;10.60;99.90;;;;;;5053822;28;20179;-66
2021/04/11 01:44:10;;;;;;;10.33;9.23;;;10.50;99.90;;;;;;5054275;28;20701;-66
2021/04/11 01:46:35;;;;;;;13.60;9.70;;;10.50;99.90;;;;;;5053628;28;20547;-65
2021/04/11 01:49:03;;;;;;;10.60;9.43;;;10.50;99.90;;;;;;5054445;28;20198;-67
2021/04/11 01:51:33;;;;;;;13.00;10.57;;;10.40;99.90;;;;;;5053499;28;20684;-65
2021/04/11 01:54:00;;;;;;;10.07;8.50;;;10.50;99.90;;;;;;5054087;28;20221;-66
2021/04/11 01:56:26;;;;;;;9.00;7.83;;;10.50;99.90;;;;;;5052333;28;20268;-66
2021/04/11 01:58:52;;;;;;;8.27;7.47;;;10.50;99.90;;;;;;5053988;28;20922;-66
2021/04/11 02:01:29;;;;;;;8.87;7.50;;;10.50;99.90;;;;;;5051930;28;20277;-66
2021/04/11 02:04:00;;;;;;;9.40;7.63;;;10.40;99.90;;;;;;5053818;28;20248;-66
2021/04/11 02:06:27;;;;;;;7.90;7.10;;;10.40;99.90;;;;;;5053562;28;20324;-64
2021/04/11 02:09:16;;;;;;;10.60;7.10;;;10.50;99.90;;;;;;5053938;28;20166;-65
2021/04/11 02:11:41;;;;;;;9.13;7.03;;;10.50;99.90;;;;;;5021192;28;20744;-66
2021/04/11 02:14:10;;;;;;;8.30;6.37;;;10.50;99.90;;;;;;5033969;28;20250;-66
2021/04/11 02:16:36;;;;;;;7.80;7.10;;;10.50;99.90;;;;;;5053182;28;20214;-66
2021/04/11 02:19:23;;;;;;;7.57;6.87;;;10.60;99.90;;;;;;5053821;28;20179;-66
2021/04/11 02:22:18;;;;;;;7.73;7.00;;;10.60;99.90;;;;;;5033870;28;20190;-66
2021/04/11 02:24:44;;;;;;;7.87;7.17;;;10.70;99.90;;;;;;5036858;28;20706;-66
2021/04/11 02:27:18;;;;;;;8.67;7.77;;;10.70;99.90;;;;;;5053766;28;20199;-65
2021/04/11 02:29:47;;;;;;;8.27;7.00;;;10.70;99.90;;;;;;5033780;28;20187;-66
2021/04/11 02:32:17;;;;;;;9.53;6.87;;;10.70;99.90;;;;;;5046263;28;20778;-66
2021/04/11 02:34:45;;;;;;;7.60;6.90;;;10.70;99.90;;;;;;5053379;28;20171;-67
2021/04/11 02:37:24;;;;;;;20.93;14.37;;;10.70;99.90;;;;;;5053141;28;20842;-66
2021/04/11 02:39:54;;;;;;;25.43;18.80;;;10.50;99.90;;;;;;5053196;28;20270;-66
2021/04/11 02:42:24;;;;;;;31.37;22.07;;;10.20;99.90;;;;;;5053204;28;20232;-65
2021/04/11 02:44:52;;;;;;;27.50;18.43;;;9.90;99.90;;;;;;5053286;28;20636;-66
2021/04/11 02:47:18;;;;;;;27.80;19.53;;;9.80;99.90;;;;;;5053182;28;20206;-66
2021/04/11 02:49:48;;;;;;;26.27;17.50;;;9.60;99.90;;;;;;5052709;28;20190;-65
2021/04/11 02:52:26;;;;;;;21.17;14.73;;;9.40;99.90;;;;;;5052652;28;20221;-64
2021/04/11 02:54:54;;;;;;;24.50;17.33;;;9.20;99.90;;;;;;5052740;28;20694;-65
2021/04/11 02:57:20;;;;;;;25.47;17.23;;;9.00;99.90;;;;;;5053399;28;20286;-65
2021/04/11 02:59:49;;;;;;;23.33;17.83;;;8.90;99.90;;;;;;5053693;28;20171;-66
2021/04/11 03:02:15;;;;;;;24.90;17.60;;;8.80;99.90;;;;;;5053108;28;20660;-66
2021/04/11 03:04:41;;;;;;;25.77;18.53;;;8.80;99.90;;;;;;5052882;28;20213;-65
2021/04/11 03:07:28;;;;;;;22.30;15.87;;;8.70;99.90;;;;;;5052893;28;20207;-66
2021/04/11 03:09:59;;;;;;;22.60;16.73;;;8.50;99.90;;;;;;5052829;28;20186;-66
2021/04/11 03:12:25;;;;;;;22.83;15.67;;;8.40;99.90;;;;;;5052459;28;20253;-66
2021/04/11 03:14:52;;;;;;;26.53;19.27;;;8.40;99.90;;;;;;5053009;28;20197;-65
2021/04/11 03:17:21;;;;;;;33.20;21.03;;;8.30;99.90;;;;;;5053487;28;20211;-65
2021/04/11 03:19:52;;;;;;;25.23;16.87;;;8.20;99.90;;;;;;5052848;28;20524;-65
2021/04/11 03:22:19;;;;;;;30.07;20.83;;;8.10;99.90;;;;;;5053182;28;20198;-65
2021/04/11 03:24:48;;;;;;;32.80;21.00;;;7.90;99.90;;;;;;5052928;28;20186;-65
2021/04/11 03:27:25;;;;;;;30.37;20.73;;;7.90;99.90;;;;;;5053484;28;20234;-65
2021/04/11 03:30:07;;;;;;;24.53;15.97;;;7.90;99.90;;;;;;5052565;28;20186;-64
2021/04/11 03:32:41;;;;;;;24.40;15.63;;;7.80;99.90;;;;;;5053670;28;20673;-66
2021/04/11 03:35:10;;;;;;;17.20;12.60;;;7.70;99.90;;;;;;5054525;28;20220;-65
2021/04/11 03:37:39;;;;;;;14.90;11.63;;;7.60;99.90;;;;;;5054437;28;20248;-65
2021/04/11 03:40:09;;;;;;;14.53;10.57;;;7.60;99.90;;;;;;5051905;28;20800;-65
2021/04/11 03:42:38;;;;;;;14.17;10.63;;;7.40;99.90;;;;;;5054042;28;20236;-66
2021/04/11 03:45:05;;;;;;;14.90;11.67;;;7.40;99.90;;;;;;5053172;28;20236;-66
2021/04/11 03:47:49;;;;;;;19.67;14.10;;;7.30;99.90;;;;;;5051978;28;20208;-65
2021/04/11 03:50:27;;;;;;;16.17;11.93;;;7.20;99.90;;;;;;5052470;28;20244;-66
2021/04/11 03:53:02;;;;;;;15.60;11.03;;;7.20;99.90;;;;;;5052985;28;20282;-65
2021/04/11 03:55:31;;;;;;;14.50;10.60;;;7.20;99.90;;;;;;5052930;28;20189;-65
2021/04/11 03:58:00;;;;;;;12.07;9.47;;;7.20;99.90;;;;;;5052734;28;20249;-66
2021/04/11 04:00:35;;;;;;;14.67;9.80;;;7.10;99.90;;;;;;5052668;28;20179;-65
2021/04/11 04:03:08;;;;;;;12.70;9.10;;;7.10;99.90;;;;;;5052334;28;20273;-65
2021/04/11 04:05:36;;;;;;;11.73;9.03;;;7.00;99.90;;;;;;5052364;28;20175;-65
2021/04/11 04:08:01;;;;;;;10.00;7.60;;;6.90;99.90;;;;;;5052112;28;20210;-64
2021/04/11 04:10:36;;;;;;;12.33;7.63;;;6.70;99.90;;;;;;5052394;28;20225;-65
2021/04/11 04:13:02;;;;;;;8.60;6.50;;;6.70;99.90;;;;;;5052148;28;20209;-66
2021/04/11 04:15:43;;;;;;;9.07;6.13;;;6.60;99.90;;;;;;5052614;28;20256;-64
2021/04/11 04:18:33;;;;;;;10.77;7.10;;;6.40;99.90;;;;;;5052460;28;20201;-65
2021/04/11 04:21:04;;;;;;;7.17;5.70;;;6.30;99.90;;;;;;5052324;28;20590;-65
2021/04/11 04:23:40;;;;;;;9.80;7.40;;;6.20;99.90;;;;;;5052477;28;20191;-65
2021/04/11 04:26:46;;;;;;;10.17;7.73;;;6.20;99.90;;;;;;5052391;28;20222;-64
2021/04/11 04:29:14;;;;;;;10.80;7.67;;;6.20;99.90;;;;;;5052369;28;20182;-66
2021/04/11 04:32:24;;;;;;;11.37;8.80;;;6.20;99.90;;;;;;5051323;28;20182;-65
2021/04/11 04:35:27;;;;;;;13.40;9.83;;;6.20;99.90;;;;;;5051983;28;20166;-65
2021/04/11 04:38:19;;;;;;;14.37;9.20;;;6.20;99.90;;;;;;5032354;28;20195;-65
2021/04/11 04:41:03;;;;;;;13.13;9.97;;;6.20;99.90;;;;;;5037364;28;20238;-65
2021/04/11 04:43:44;;;;;;;13.07;9.17;;;6.20;99.90;;;;;;5053430;28;20529;-65
2021/04/11 04:46:19;;;;;;;13.83;10.23;;;6.10;99.90;;;;;;5051815;28;20579;-66
2021/04/11 04:49:18;;;;;;;15.20;10.30;;;6.00;99.90;;;;;;5051564;28;20166;-65
2021/04/11 04:51:53;;;;;;;12.67;10.17;;;5.90;99.90;;;;;;5048822;28;20194;-65
2021/04/11 04:54:36;;;;;;;16.03;10.33;;;6.00;99.90;;;;;;5052119;28;20167;-65
2021/04/11 04:57:20;;;;;;;15.43;10.77;;;5.90;99.90;;;;;;5052184;28;20194;-65
2021/04/11 05:00:08;;;;;;;19.03;11.60;;;5.90;99.90;;;;;;5051559;28;20648;-65
2021/04/11 05:02:54;;;;;;;18.40;12.57;;;5.90;99.90;;;;;;5051168;28;20262;-64
2021/04/11 05:05:21;;;;;;;21.77;14.87;;;5.80;99.90;;;;;;5051728;28;20167;-65
2021/04/11 05:07:56;;;;;;;21.80;14.97;;;5.70;99.90;;;;;;5051132;28;20737;-66
2021/04/11 05:10:33;;;;;;;22.43;14.30;;;5.60;99.90;;;;;;5051284;28;20190;-64
2021/04/11 05:13:18;;;;;;;15.77;11.07;;;5.60;99.90;;;;;;5051739;28;20202;-64
2021/04/11 05:15:48;;;;;;;22.57;13.10;;;5.60;99.90;;;;;;5051582;28;20182;-64
2021/04/11 05:18:20;;;;;;;25.60;14.47;;;5.50;99.90;;;;;;5053973;28;20198;-64
2021/04/11 05:20:54;;;;;;;19.37;11.97;;;5.50;99.90;;;;;;5054775;28;20210;-65
2021/04/11 05:23:25;;;;;;;18.03;11.87;;;5.40;99.90;;;;;;5055298;28;20198;-65
2021/04/11 05:26:11;;;;;;;15.57;11.43;;;5.30;99.90;;;;;;5055151;28;20656;-65
2021/04/11 05:29:01;;;;;;;16.87;11.10;;;5.20;99.90;;;;;;5055017;28;20162;-65
2021/04/11 05:31:31;;;;;;;14.97;11.23;;;5.20;99.90;;;;;;5055708;28;20178;-66
2021/04/11 05:33:57;;;;;;;14.63;10.27;;;5.20;99.90;;;;;;5055520;28;20179;-65
2021/04/11 05:36:41;;;;;;;15.60;10.57;;;5.20;99.90;;;;;;5055953;28;20256;-66
2021/04/11 05:39:10;;;;;;;15.33;11.40;;;5.10;99.90;;;;;;5035428;28;20233;-65
2021/04/11 05:41:46;;;;;;;17.03;11.53;;;5.10;99.90;;;;;;5036308;28;20174;-65
2021/04/11 05:44:26;;;;;;;18.77;12.10;;;5.10;99.90;;;;;;5055813;28;20196;-65
2021/04/11 05:47:14;;;;;;;18.97;14.27;;;5.00;99.90;;;;;;5055521;28;20668;-65
2021/04/11 05:49:51;;;;;;;18.27;12.00;;;5.10;99.90;;;;;;5054690;28;20503;-65
2021/04/11 05:52:26;;;;;;;15.77;9.93;;;5.00;99.90;;;;;;5054563;28;20202;-66
2021/04/11 05:54:55;;;;;;;17.53;11.73;;;4.90;99.90;;;;;;5054594;28;20174;-65
2021/04/11 05:57:37;;;;;;;20.67;13.80;;;4.80;99.90;;;;;;5054529;28;20296;-65
2021/04/11 06:00:21;;;;;;;17.07;12.30;;;4.80;99.90;;;;;;5054446;28;20628;-65
2021/04/11 06:02:53;;;;;;;20.07;13.57;;;4.80;99.90;;;;;;5052125;28;20182;-64
2021/04/11 06:05:33;;;;;;;16.30;11.13;;;4.80;99.90;;;;;;5053913;28;20178;-64
2021/04/11 06:08:17;;;;;;;20.13;13.60;;;4.70;99.90;;;;;;5054092;28;20185;-63
2021/04/11 06:10:50;;;;;;;20.87;12.90;;;4.70;99.90;;;;;;5053492;28;20183;-64
2021/04/11 06:13:35;;;;;;;23.17;15.77;;;4.70;99.90;;;;;;5054159;28;20203;-64
2021/04/11 06:16:05;;;;;;;25.13;16.43;;;4.70;99.90;;;;;;5053375;28;20206;-65
2021/04/11 06:18:31;;;;;;;27.67;17.57;;;4.70;99.90;;;;;;5054056;28;20258;-66
2021/04/11 06:21:01;;;;;;;21.93;14.73;;;4.70;99.90;;;;;;5053326;28;20261;-66
2021/04/11 06:23:29;;;;;;;26.40;16.17;;;4.70;99.90;;;;;;5054289;28;20171;-66
2021/04/11 06:26:27;;;;;;;24.37;16.27;;;4.70;99.90;;;;;;5053536;28;20207;-66
2021/04/11 06:29:20;;;;;;;27.30;15.30;;;4.60;99.90;;;;;;5052087;28;20178;-64
2021/04/11 06:31:58;;;;;;;24.77;15.63;;;4.60;99.90;;;;;;5052850;28;20160;-65
2021/04/11 06:34:30;;;;;;;29.27;17.27;;;4.50;99.90;;;;;;5053135;28;20537;-65
2021/04/11 06:37:02;;;;;;;29.50;17.27;;;4.50;99.90;;;;;;5051766;28;20191;-66
2021/04/11 06:39:33;;;;;;;22.00;13.60;;;4.60;99.90;;;;;;5053065;28;20182;-66
2021/04/11 06:42:36;;;;;;;27.17;16.63;;;4.70;99.90;;;;;;5053116;28;20256;-66
2021/04/11 06:45:27;;;;;;;21.40;15.30;;;4.70;99.90;;;;;;5052967;28;20632;-65
2021/04/11 06:48:03;;;;;;;19.07;13.17;;;4.80;99.90;;;;;;5054308;28;20190;-65
2021/04/11 06:50:37;;;;;;;18.87;12.00;;;4.80;99.90;;;;;;5033321;28;20179;-65
2021/04/11 06:53:24;;;;;;;17.07;10.90;;;4.90;99.90;;;;;;5033427;28;20289;-64
2021/04/11 06:55:59;;;;;;;17.50;10.53;;;4.80;99.90;;;;;;5033092;28;20590;-64
2021/04/11 06:58:28;;;;;;;18.03;10.63;;;4.80;99.90;;;;;;5035918;28;20178;-66
2021/04/11 07:01:19;;;;;;;16.80;11.37;;;4.70;99.90;;;;;;5052366;28;20175;-64
2021/04/11 07:04:21;;;;;;;13.57;9.77;;;4.70;99.90;;;;;;5032781;28;20293;-64
2021/04/11 07:07:14;;;;;;;14.17;10.63;;;4.70;99.90;;;;;;5038469;28;20202;-65
2021/04/11 07:10:01;;;;;;;16.23;10.57;;;4.80;99.90;;;;;;5052810;28;20198;-64
2021/04/11 07:12:27;;;;;;;12.27;9.20;;;4.80;99.90;;;;;;5052634;28;20228;-64
2021/04/11 07:15:01;;;;;;;12.53;9.23;;;4.80;99.90;;;;;;5052448;28;20176;-64
2021/04/11 07:17:45;;;;;;;13.97;8.33;;;4.70;99.90;;;;;;5052226;28;20206;-65
2021/04/11 07:20:17;;;;;;;15.73;10.30;;;4.70;99.90;;;;;;5053020;28;20163;-65
2021/04/11 07:23:11;;;;;;;20.13;10.93;;;4.70;99.90;;;;;;5053273;28;20519;-65
2021/04/11 07:25:59;;;;;;;22.40;12.70;;;4.60;99.90;;;;;;5052997;28;20178;-65
2021/04/11 07:28:37;;;;;;;21.43;13.70;;;4.60;99.90;;;;;;5053266;28;20249;-65
2021/04/11 07:31:27;;;;;;;29.60;15.80;;;4.60;99.90;;;;;;5052713;28;20182;-65
2021/04/11 07:33:53;;;;;;;23.07;13.37;;;4.70;99.90;;;;;;5053380;28;20285;-65
2021/04/11 07:36:40;;;;;;;18.23;11.53;;;4.80;99.90;;;;;;5052844;28;20288;-66
2021/04/11 07:39:21;;;;;;;16.90;10.97;;;4.60;99.90;;;;;;5053246;28;20174;-65
2021/04/11 07:42:05;;;;;;;19.33;11.97;;;4.70;99.90;;;;;;5032693;28;20171;-67
2021/04/11 07:44:49;;;;;;;20.90;13.33;;;4.80;99.90;;;;;;5033125;28;20178;-67
2021/04/11 07:47:52;;;;;;;18.00;12.37;;;4.90;99.90;;;;;;5052241;28;20567;-66
2021/04/11 07:50:20;;;;;;;12.33;9.27;;;4.80;99.90;;;;;;5050705;28;20682;-66
2021/04/11 07:53:08;;;;;;;15.40;9.47;;;4.80;99.90;;;;;;5051826;28;20286;-65
2021/04/11 07:56:00;;;;;;;14.10;10.17;;;4.70;99.90;;;;;;5050903;28;20221;-66
2021/04/11 07:58:50;;;;;;;16.23;10.10;;;4.70;99.90;;;;;;5060336;28;20182;-65
2021/04/11 08:01:27;;;;;;;12.87;8.87;;;4.70;99.90;;;;;;5031904;28;20182;-65
2021/04/11 08:04:22;;;;;;;11.90;9.20;;;4.70;99.90;;;;;;5034915;28;20537;-67
2021/04/11 08:07:11;;;;;;;14.33;9.63;;;4.70;99.90;;;;;;5050470;28;20201;-65
2021/04/11 08:10:07;;;;;;;14.73;9.43;;;4.80;99.90;;;;;;5052691;28;20240;-65
2021/04/11 08:13:09;;;;;;;10.53;7.67;;;4.90;99.90;;;;;;5052607;28;20199;-66
2021/04/11 08:15:49;;;;;;;9.70;6.90;;;4.90;99.90;;;;;;5020128;28;20281;-65
2021/04/11 08:18:21;;;;;;;13.50;7.97;;;4.90;99.90;;;;;;5032332;28;20648;-65
2021/04/11 08:21:11;;;;;;;10.77;8.67;;;4.80;99.90;;;;;;5049003;28;20262;-65
2021/04/11 08:23:52;;;;;;;10.00;7.87;;;4.70;99.90;;;;;;5051795;28;20179;-66
2021/04/11 08:26:48;;;;;;;9.03;7.43;;;4.70;99.90;;;;;;5037182;28;20294;-66
2021/04/11 08:29:38;;;;;;;11.07;6.47;;;4.70;99.90;;;;;;5051236;28;20181;-65
2021/04/11 08:32:25;;;;;;;9.30;7.30;;;4.60;99.90;;;;;;5051407;28;20541;-67
2021/04/11 08:35:14;;;;;;;6.53;5.83;;;4.60;99.90;;;;;;5050877;28;20181;-66
2021/04/11 08:38:10;;;;;;;8.20;6.00;;;4.50;99.90;;;;;;5051356;28;20269;-66
2021/04/11 08:40:49;;;;;;;7.70;5.60;;;4.60;99.90;;;;;;5051532;28;20202;-66
2021/04/11 08:43:30;;;;;;;6.90;5.73;;;4.60;99.90;;;;;;5050462;28;20232;-66
2021/04/11 08:46:23;;;;;;;8.23;5.40;;;4.60;99.90;;;;;;5051344;28;20282;-66
2021/04/11 08:49:19;;;;;;;5.77;4.43;;;4.60;99.90;;;;;;5052060;28;20605;-65
2021/04/11 08:52:00;;;;;;;6.77;4.80;;;4.60;99.90;;;;;;5052662;28;20672;-64
2021/04/11 08:54:54;;;;;;;6.57;5.27;;;4.70;99.90;;;;;;5056385;28;20216;-65
2021/04/11 08:57:57;;;;;;;6.27;4.90;;;4.70;99.90;;;;;;5045079;28;20207;-64
2021/04/11 09:00:35;;;;;;;5.77;5.03;;;4.60;99.90;;;;;;5048346;28;20685;-65
2021/04/11 09:03:31;;;;;;;7.17;6.47;;;4.60;99.90;;;;;;5055444;28;20261;-65
2021/04/11 09:06:05;;;;;;;5.97;5.37;;;4.70;99.90;;;;;;5055938;28;20218;-66
2021/04/11 09:08:49;;;;;;;7.80;6.17;;;4.70;99.90;;;;;;5054617;28;20269;-65
2021/04/11 09:11:21;;;;;;;6.90;5.77;;;4.90;99.90;;;;;;5054761;28;20179;-64
2021/04/11 09:13:58;;;;;;;5.27;4.77;;;5.10;99.90;;;;;;5055118;28;20211;-65
2021/04/11 09:16:30;;;;;;;8.10;5.73;;;5.10;99.90;;;;;;5055629;28;20283;-66
2021/04/11 09:19:22;;;;;;;6.30;5.63;;;5.10;99.90;;;;;;5054758;28;20808;-65
2021/04/11 09:22:22;;;;;;;5.97;5.33;;;5.30;99.90;;;;;;5052901;28;20201;-66
2021/04/11 09:24:57;;;;;;;6.90;6.07;;;5.20;99.90;;;;;;5054432;28;20174;-65
2021/04/11 09:27:50;;;;;;;6.13;5.00;;;5.30;99.90;;;;;;5054170;28;20598;-66
2021/04/11 09:30:38;;;;;;;5.17;4.67;;;5.30;99.90;;;;;;5054306;28;20659;-66
2021/04/11 09:33:37;;;;;;;5.77;5.07;;;5.20;99.90;;;;;;5034472;28;20290;-65
2021/04/11 09:36:09;;;;;;;4.73;4.33;;;5.20;99.90;;;;;;5048861;28;20748;-66
2021/04/11 09:38:45;;;;;;;4.60;4.03;;;5.10;99.90;;;;;;5054326;28;20620;-65
2021/04/11 09:41:36;;;;;;;4.60;4.07;;;5.00;99.90;;;;;;5053737;28;20170;-66
2021/04/11 09:44:16;;;;;;;5.17;4.67;;;5.00;99.90;;;;;;5054035;28;20183;-67
2021/04/11 09:47:23;;;;;;;4.67;4.27;;;5.00;99.90;;;;;;5054099;28;20190;-65
2021/04/11 09:49:48;;;;;;;5.27;4.70;;;5.10;99.90;;;;;;5020355;28;20218;-66
2021/04/11 09:52:19;;;;;;;4.90;4.40;;;5.20;99.90;;;;;;5053813;28;20238;-66
2021/04/11 09:54:55;;;;;;;5.20;4.70;;;5.20;99.90;;;;;;5054058;28;20509;-66
2021/04/11 09:57:28;;;;;;;4.77;4.37;;;5.20;99.90;;;;;;5053833;28;20664;-66
2021/04/11 10:00:30;;;;;;;4.60;4.20;;;5.20;99.90;;;;;;5053576;28;20170;-65
2021/04/11 10:02:55;;;;;;;3.83;3.53;;;5.20;99.90;;;;;;5052418;28;20232;-66
2021/04/11 10:06:06;;;;;;;5.67;3.70;;;5.20;99.90;;;;;;5052545;28;20540;-65
2021/04/11 10:08:49;;;;;;;5.23;4.73;;;5.20;99.90;;;;;;5053508;28;20620;-65
2021/04/11 10:11:33;;;;;;;4.20;3.90;;;5.20;99.90;;;;;;5052908;28;20640;-67
2021/04/11 10:14:36;;;;;;;4.67;4.27;;;5.20;99.90;;;;;;5053795;28;20198;-67
2021/04/11 10:17:34;;;;;;;4.20;3.80;;;5.20;99.90;;;;;;5053454;28;20209;-66
2021/04/11 10:20:14;;;;;;;3.57;3.27;;;5.30;99.90;;;;;;5053344;28;20175;-65
2021/04/11 10:22:59;;;;;;;4.43;3.63;;;5.30;99.90;;;;;;5053496;28;20171;-66
2021/04/11 10:25:47;;;;;;;4.20;3.80;;;5.20;99.90;;;;;;5053739;28;20179;-65
2021/04/11 10:28:25;;;;;;;4.37;3.83;;;5.20;99.90;;;;;;5052456;28;20199;-67
2021/04/11 10:31:22;;;;;;;3.97;3.67;;;5.20;99.90;;;;;;5052884;28;20178;-65
2021/04/11 10:34:00;;;;;;;4.80;4.17;;;5.20;99.90;;;;;;5052415;28;20246;-64
2021/04/11 10:36:41;;;;;;;7.37;4.30;;;5.20;99.90;;;;;;5053255;28;20718;-66
2021/04/11 10:39:20;;;;;;;4.23;3.90;;;5.20;99.90;;;;;;5053123;28;20250;-66
2021/04/11 10:42:04;;;;;;;4.03;3.70;;;5.20;99.90;;;;;;5052752;28;20175;-66
2021/04/11 10:44:48;;;;;;;4.67;4.27;;;5.20;99.90;;;;;;5053151;28;20177;-64
2021/04/11 10:47:49;;;;;;;4.93;4.00;;;5.30;99.90;;;;;;5053035;28;20198;-67
2021/04/11 10:50:29;;;;;;;4.20;3.80;;;5.30;99.90;;;;;;5052786;28;20548;-66
2021/04/11 10:53:26;;;;;;;4.03;3.63;;;5.30;99.90;;;;;;5052615;28;20206;-67
2021/04/11 10:56:35;;;;;;;3.90;3.60;;;5.20;99.90;;;;;;5051685;28;20214;-66
2021/04/11 10:59:33;;;;;;;4.33;3.93;;;5.20;99.90;;;;;;5034936;28;20273;-65
2021/04/11 11:02:14;;;;;;;3.77;3.47;;;5.20;99.90;;;;;;5052843;28;20174;-66
2021/04/11 11:04:58;;;;;;;4.03;3.73;;;5.20;99.90;;;;;;5053041;28;20178;-66
2021/04/11 11:07:40;;;;;;;4.00;3.50;;;5.30;99.90;;;;;;5052843;28;20198;-66
2021/04/11 11:10:20;;;;;;;4.70;4.30;;;5.20;99.90;;;;;;5051765;28;20634;-66
2021/04/11 11:12:58;;;;;;;4.33;3.93;;;5.20;99.90;;;;;;5052783;28;20564;-65
2021/04/11 11:15:24;;;;;;;4.20;3.80;;;5.10;99.90;;;;;;5052900;28;20175;-66
2021/04/11 11:18:01;;;;;;;4.47;4.07;;;5.20;99.90;;;;;;5052656;28;20221;-66
2021/04/11 11:21:16;;;;;;;3.50;3.20;;;5.20;99.90;;;;;;5053133;28;20178;-65
2021/04/11 11:23:56;;;;;;;3.80;3.50;;;5.30;99.90;;;;;;5052568;28;20254;-66
2021/04/11 11:26:50;;;;;;;3.60;3.30;;;5.50;99.90;;;;;;5051410;28;20203;-66
2021/04/11 11:29:50;;;;;;;2.87;2.67;;;5.60;99.90;;;;;;5052858;28;20178;-65
2021/04/11 11:32:33;;;;;;;3.03;2.67;;;5.50;99.90;;;;;;5052413;28;20240;-64
2021/04/11 11:35:00;;;;;;;3.37;3.10;;;5.30;99.90;;;;;;5052094;28;20171;-66
2021/04/11 11:37:59;;;;;;;4.03;3.10;;;5.40;99.90;;;;;;5051105;28;20194;-66
2021/04/11 11:40:32;;;;;;;3.13;2.90;;;5.30;99.90;;;;;;5050693;28;20167;-67
2021/04/11 11:43:00;;;;;;;3.30;3.00;;;5.20;99.90;;;;;;5050755;28;20175;-65
2021/04/11 11:45:53;;;;;;;3.37;3.17;;;5.20;99.90;;;;;;5052122;28;20167;-66
2021/04/11 11:48:35;;;;;;;3.30;3.00;;;5.30;99.90;;;;;;5047033;28;20187;-65
2021/04/11 11:51:36;;;;;;;3.47;3.13;;;5.60;99.90;;;;;;5030555;28;20189;-66
2021/04/11 11:54:17;;;;;;;3.60;3.30;;;5.60;99.90;;;;;;5048499;28;20248;-66
2021/04/11 11:57:02;;;;;;;4.17;3.83;;;5.70;99.90;;;;;;5051697;28;20214;-67
2021/04/11 11:59:37;;;;;;;3.77;3.47;;;5.50;99.90;;;;;;5051698;28;20183;-67
2021/04/11 12:02:25;;;;;;;4.83;4.20;;;5.60;99.90;;;;;;5049808;28;20608;-66
2021/04/11 12:05:01;;;;;;;3.80;3.40;;;5.70;99.90;;;;;;5051681;28;20262;-67
2021/04/11 12:07:36;;;;;;;4.20;3.90;;;5.70;99.90;;;;;;5051527;28;20229;-67
2021/04/11 12:10:18;;;;;;;4.77;4.27;;;5.90;99.90;;;;;;5051390;28;20261;-66
2021/04/11 12:13:07;;;;;;;5.43;3.90;;;6.00;99.90;;;;;;5051267;28;20197;-67
2021/04/11 12:15:39;;;;;;;6.30;5.03;;;6.10;99.90;;;;;;5051376;28;20698;-66
2021/04/11 12:18:11;;;;;;;4.13;3.73;;;6.20;99.90;;;;;;5051449;28;20186;-66
2021/04/11 12:20:49;;;;;;;4.77;4.37;;;6.20;99.90;;;;;;5050708;28;20182;-66
2021/04/11 12:23:31;;;;;;;4.93;4.27;;;6.20;99.90;;;;;;5051366;28;20166;-67
2021/04/11 12:26:19;;;;;;;4.07;3.63;;;6.10;99.90;;;;;;5049405;28;20234;-65
2021/04/11 12:28:47;;;;;;;4.50;4.10;;;6.30;99.90;;;;;;5046767;28;20186;-65
2021/04/11 12:31:16;;;;;;;4.77;3.07;;;6.20;99.90;;;;;;5051070;28;20190;-66
2021/04/11 12:34:01;;;;;;;5.30;4.00;;;6.00;99.90;;;;;;5051273;28;20265;-67
2021/04/11 12:36:41;;;;;;;5.90;4.07;;;6.00;99.90;;;;;;5050767;28;20660;-67
2021/04/11 12:39:26;;;;;;;4.83;3.90;;;6.00;99.90;;;;;;5051382;28;20171;-65
2021/04/11 12:42:09;;;;;;;4.80;3.47;;;6.00;99.90;;;;;;5050963;28;20228;-66
2021/04/11 12:44:55;;;;;;;4.67;4.20;;;6.30;99.90;;;;;;5051500;28;20179;-67
2021/04/11 12:47:52;;;;;;;4.03;3.73;;;6.30;99.90;;;;;;5052083;28;20219;-67
2021/04/11 12:50:41;;;;;;;4.80;3.97;;;6.50;99.90;;;;;;5035385;28;20183;-67
2021/04/11 12:53:14;;;;;;;5.23;4.00;;;6.60;99.90;;;;;;5051030;28;20221;-67
2021/04/11 12:55:59;;;;;;;4.00;3.60;;;6.90;99.90;;;;;;5051448;28;20178;-66
2021/04/11 12:58:38;;;;;;;4.57;4.17;;;6.80;99.90;;;;;;5032359;28;20179;-67
2021/04/11 13:01:03;;;;;;;5.33;3.83;;;6.70;99.90;;;;;;5031524;28;20263;-65
2021/04/11 13:03:39;;;;;;;6.60;4.87;;;6.70;99.90;;;;;;5050592;28;20182;-67
2021/04/11 13:06:12;;;;;;;4.97;4.33;;;6.70;99.90;;;;;;5051297;28;20248;-65
2021/04/11 13:09:09;;;;;;;3.93;3.60;;;6.90;99.90;;;;;;5031910;28;20191;-66
2021/04/11 13:11:57;;;;;;;5.07;4.50;;;7.20;99.90;;;;;;5050871;28;20217;-65
2021/04/11 13:14:32;;;;;;;3.43;3.13;;;7.30;99.90;;;;;;5050822;28;20546;-65
2021/04/11 13:17:11;;;;;;;4.73;4.23;;;7.10;99.90;;;;;;5050324;28;20218;-66
2021/04/11 13:19:51;;;;;;;4.03;3.57;;;7.00;99.90;;;;;;5050852;28;20654;-66
2021/04/11 13:22:27;;;;;;;4.33;3.80;;;6.90;99.90;;;;;;5048919;28;20190;-66
2021/04/11 13:25:14;;;;;;;4.43;4.00;;;6.80;99.90;;;;;;5050590;28;20217;-66
2021/04/11 13:27:53;;;;;;;4.77;4.17;;;6.60;99.90;;;;;;5050448;28;20203;-65
2021/04/11 13:30:29;;;;;;;6.77;6.07;;;6.60;99.90;;;;;;5050744;28;20217;-66
2021/04/11 13:33:31;;;;;;;10.20;7.53;;;6.50;99.90;;;;;;5050183;28;20217;-66
2021/04/11 13:36:00;;;;;;;9.40;8.00;;;6.50;99.90;;;;;;5043464;28;20219;-66
2021/04/11 13:38:36;;;;;;;10.57;7.77;;;6.40;99.90;;;;;;5049834;28;20614;-65
2021/04/11 13:41:15;;;;;;;10.07;8.17;;;6.20;99.90;;;;;;5053741;28;20228;-67
2021/04/11 13:43:40;;;;;;;12.87;11.50;;;6.20;99.90;;;;;;5054067;28;20221;-67
2021/04/11 13:46:25;;;;;;;11.80;10.37;;;6.10;99.90;;;;;;5053954;28;20199;-66